sensor_id;sensor_type;location;lat;lon;timestamp;P1;durP1;ratioP1;P2;durP2;ratioP2
46318;SDS011;32042;50.916;2.926;2023-09-19T00:00:45;6.10;;;1.50;;
46318;SDS011;32042;50.916;2.926;2023-09-19T00:03:14;6.50;;;2.40;;
46318;SDS011;32042;50.916;2.926;2023-09-19T00:05:40;7.63;;;2.80;;
46318;SDS011;32042;50.916;2.926;2023-09-19T00:08:09;5.20;;;1.70;;
46318;SDS011;32042;50.916;2.926;2023-09-19T00:10:35;7.53;;;2.10;;
46318;SDS011;32042;50.916;2.926;2023-09-19T00:13:04;5.70;;;1.63;;
46318;SDS011;32042;50.916;2.926;2023-09-19T00:15:30;4.80;;;1.90;;
46318;SDS011;32042;50.916;2.926;2023-09-19T00:18:03;5.47;;;1.50;;
46318;SDS011;32042;50.916;2.926;2023-09-19T00:20:32;5.43;;;1.83;;
46318;SDS011;32042;50.916;2.926;2023-09-19T00:23:00;9.13;;;1.70;;
46318;SDS011;32042;50.916;2.926;2023-09-19T00:25:34;7.67;;;2.17;;
46318;SDS011;32042;50.916;2.926;2023-09-19T00:28:00;5.10;;;1.80;;
46318;SDS011;32042;50.916;2.926;2023-09-19T00:30:26;4.10;;;1.40;;
46318;SDS011;32042;50.916;2.926;2023-09-19T00:32:52;5.67;;;1.47;;
46318;SDS011;32042;50.916;2.926;2023-09-19T00:35:20;7.93;;;1.90;;
46318;SDS011;32042;50.916;2.926;2023-09-19T00:37:52;8.87;;;2.20;;
46318;SDS011;32042;50.916;2.926;2023-09-19T00:40:18;5.30;;;1.90;;
46318;SDS011;32042;50.916;2.926;2023-09-19T00:42:45;7.77;;;1.80;;
46318;SDS011;32042;50.916;2.926;2023-09-19T00:45:12;5.50;;;1.97;;
46318;SDS011;32042;50.916;2.926;2023-09-19T00:47:40;7.23;;;1.50;;
46318;SDS011;32042;50.916;2.926;2023-09-19T00:50:09;12.30;;;2.47;;
46318;SDS011;32042;50.916;2.926;2023-09-19T00:52:38;11.10;;;1.83;;
46318;SDS011;32042;50.916;2.926;2023-09-19T00:55:08;10.23;;;2.17;;
46318;SDS011;32042;50.916;2.926;2023-09-19T00:57:35;11.83;;;2.10;;
46318;SDS011;32042;50.916;2.926;2023-09-19T01:00:03;7.17;;;2.33;;
46318;SDS011;32042;50.916;2.926;2023-09-19T01:02:36;9.90;;;2.23;;
46318;SDS011;32042;50.916;2.926;2023-09-19T01:05:02;7.93;;;2.10;;
46318;SDS011;32042;50.916;2.926;2023-09-19T01:07:29;4.00;;;1.77;;
46318;SDS011;32042;50.916;2.926;2023-09-19T01:09:57;9.47;;;2.20;;
46318;SDS011;32042;50.916;2.926;2023-09-19T01:12:30;5.10;;;2.13;;
46318;SDS011;32042;50.916;2.926;2023-09-19T01:15:13;11.93;;;1.93;;
46318;SDS011;32042;50.916;2.926;2023-09-19T01:18:21;6.27;;;1.93;;
46318;SDS011;32042;50.916;2.926;2023-09-19T01:21:08;11.03;;;2.13;;
46318;SDS011;32042;50.916;2.926;2023-09-19T01:26:56;12.00;;;2.27;;
46318;SDS011;32042;50.916;2.926;2023-09-19T01:29:46;6.13;;;1.77;;
46318;SDS011;32042;50.916;2.926;2023-09-19T01:32:17;7.57;;;1.87;;
46318;SDS011;32042;50.916;2.926;2023-09-19T01:34:48;8.60;;;1.97;;
46318;SDS011;32042;50.916;2.926;2023-09-19T01:37:19;10.93;;;1.70;;
46318;SDS011;32042;50.916;2.926;2023-09-19T01:39:57;12.43;;;2.20;;
46318;SDS011;32042;50.916;2.926;2023-09-19T01:42:51;14.27;;;2.63;;
46318;SDS011;32042;50.916;2.926;2023-09-19T01:45:33;7.60;;;2.10;;
46318;SDS011;32042;50.916;2.926;2023-09-19T01:51:07;5.47;;;1.60;;
46318;SDS011;32042;50.916;2.926;2023-09-19T01:56:18;7.33;;;2.00;;
46318;SDS011;32042;50.916;2.926;2023-09-19T01:58:51;10.57;;;2.20;;
46318;SDS011;32042;50.916;2.926;2023-09-19T02:01:22;7.67;;;1.80;;
46318;SDS011;32042;50.916;2.926;2023-09-19T02:03:49;6.60;;;2.07;;
46318;SDS011;32042;50.916;2.926;2023-09-19T02:06:16;6.97;;;1.97;;
46318;SDS011;32042;50.916;2.926;2023-09-19T02:08:43;6.47;;;1.63;;
46318;SDS011;32042;50.916;2.926;2023-09-19T02:11:12;12.47;;;2.53;;
46318;SDS011;32042;50.916;2.926;2023-09-19T02:13:38;6.80;;;2.33;;
46318;SDS011;32042;50.916;2.926;2023-09-19T02:16:04;7.10;;;1.80;;
46318;SDS011;32042;50.916;2.926;2023-09-19T02:18:32;8.70;;;2.60;;
46318;SDS011;32042;50.916;2.926;2023-09-19T02:21:00;8.80;;;2.33;;
46318;SDS011;32042;50.916;2.926;2023-09-19T02:23:26;9.17;;;2.03;;
46318;SDS011;32042;50.916;2.926;2023-09-19T02:25:53;10.93;;;2.10;;
46318;SDS011;32042;50.916;2.926;2023-09-19T02:28:19;6.57;;;1.80;;
46318;SDS011;32042;50.916;2.926;2023-09-19T02:30:49;10.00;;;2.47;;
46318;SDS011;32042;50.916;2.926;2023-09-19T02:33:16;7.40;;;1.77;;
46318;SDS011;32042;50.916;2.926;2023-09-19T02:35:43;6.97;;;2.03;;
46318;SDS011;32042;50.916;2.926;2023-09-19T02:38:10;6.82;;;1.73;;
46318;SDS011;32042;50.916;2.926;2023-09-19T02:40:37;9.87;;;2.17;;
46318;SDS011;32042;50.916;2.926;2023-09-19T02:43:04;10.07;;;1.80;;
46318;SDS011;32042;50.916;2.926;2023-09-19T02:45:33;6.47;;;1.80;;
46318;SDS011;32042;50.916;2.926;2023-09-19T02:48:00;9.70;;;2.60;;
46318;SDS011;32042;50.916;2.926;2023-09-19T02:50:27;6.27;;;1.90;;
46318;SDS011;32042;50.916;2.926;2023-09-19T02:52:55;8.33;;;2.53;;
46318;SDS011;32042;50.916;2.926;2023-09-19T02:55:21;7.73;;;2.03;;
46318;SDS011;32042;50.916;2.926;2023-09-19T02:57:51;7.03;;;2.00;;
46318;SDS011;32042;50.916;2.926;2023-09-19T03:00:19;6.37;;;1.80;;
46318;SDS011;32042;50.916;2.926;2023-09-19T03:02:47;13.77;;;2.33;;
46318;SDS011;32042;50.916;2.926;2023-09-19T03:05:14;7.83;;;2.33;;
46318;SDS011;32042;50.916;2.926;2023-09-19T03:07:40;10.77;;;1.87;;
46318;SDS011;32042;50.916;2.926;2023-09-19T03:10:08;9.53;;;2.23;;
46318;SDS011;32042;50.916;2.926;2023-09-19T03:12:34;8.30;;;1.60;;
46318;SDS011;32042;50.916;2.926;2023-09-19T03:15:00;8.77;;;1.90;;
46318;SDS011;32042;50.916;2.926;2023-09-19T03:17:27;11.27;;;2.07;;
46318;SDS011;32042;50.916;2.926;2023-09-19T03:19:53;5.57;;;1.90;;
46318;SDS011;32042;50.916;2.926;2023-09-19T03:22:19;9.37;;;2.00;;
46318;SDS011;32042;50.916;2.926;2023-09-19T03:24:45;9.87;;;2.00;;
46318;SDS011;32042;50.916;2.926;2023-09-19T03:27:11;6.67;;;1.90;;
46318;SDS011;32042;50.916;2.926;2023-09-19T03:29:39;8.03;;;2.00;;
46318;SDS011;32042;50.916;2.926;2023-09-19T03:32:05;7.70;;;1.80;;
46318;SDS011;32042;50.916;2.926;2023-09-19T03:34:31;9.83;;;2.10;;
46318;SDS011;32042;50.916;2.926;2023-09-19T03:36:56;6.77;;;1.60;;
46318;SDS011;32042;50.916;2.926;2023-09-19T03:39:22;9.57;;;2.37;;
46318;SDS011;32042;50.916;2.926;2023-09-19T03:41:48;7.83;;;1.77;;
46318;SDS011;32042;50.916;2.926;2023-09-19T03:44:14;7.23;;;2.23;;
46318;SDS011;32042;50.916;2.926;2023-09-19T03:46:40;10.73;;;1.87;;
46318;SDS011;32042;50.916;2.926;2023-09-19T03:49:06;9.47;;;2.00;;
46318;SDS011;32042;50.916;2.926;2023-09-19T03:51:32;10.03;;;2.47;;
46318;SDS011;32042;50.916;2.926;2023-09-19T03:53:59;6.20;;;1.83;;
46318;SDS011;32042;50.916;2.926;2023-09-19T03:56:25;6.37;;;1.90;;
46318;SDS011;32042;50.916;2.926;2023-09-19T03:58:51;11.63;;;2.53;;
46318;SDS011;32042;50.916;2.926;2023-09-19T04:01:17;9.20;;;2.13;;
46318;SDS011;32042;50.916;2.926;2023-09-19T04:03:43;8.50;;;2.20;;
46318;SDS011;32042;50.916;2.926;2023-09-19T04:06:13;10.23;;;2.07;;
46318;SDS011;32042;50.916;2.926;2023-09-19T04:08:39;11.80;;;1.90;;
46318;SDS011;32042;50.916;2.926;2023-09-19T04:11:05;9.77;;;2.33;;
46318;SDS011;32042;50.916;2.926;2023-09-19T04:13:31;9.70;;;2.10;;
46318;SDS011;32042;50.916;2.926;2023-09-19T04:15:57;7.03;;;1.73;;
46318;SDS011;32042;50.916;2.926;2023-09-19T04:18:22;9.87;;;2.27;;
46318;SDS011;32042;50.916;2.926;2023-09-19T04:20:51;8.37;;;1.53;;
46318;SDS011;32042;50.916;2.926;2023-09-19T04:23:17;9.07;;;1.87;;
46318;SDS011;32042;50.916;2.926;2023-09-19T04:25:46;10.20;;;2.37;;
46318;SDS011;32042;50.916;2.926;2023-09-19T04:28:13;10.80;;;2.30;;
46318;SDS011;32042;50.916;2.926;2023-09-19T04:30:38;10.40;;;2.03;;
46318;SDS011;32042;50.916;2.926;2023-09-19T04:33:07;7.83;;;2.10;;
46318;SDS011;32042;50.916;2.926;2023-09-19T04:35:33;7.10;;;1.90;;
46318;SDS011;32042;50.916;2.926;2023-09-19T04:38:00;7.13;;;1.80;;
46318;SDS011;32042;50.916;2.926;2023-09-19T04:40:26;7.97;;;1.90;;
46318;SDS011;32042;50.916;2.926;2023-09-19T04:42:54;10.27;;;2.00;;
46318;SDS011;32042;50.916;2.926;2023-09-19T04:45:25;12.03;;;2.40;;
46318;SDS011;32042;50.916;2.926;2023-09-19T04:47:51;8.97;;;2.43;;
46318;SDS011;32042;50.916;2.926;2023-09-19T04:50:18;13.83;;;2.17;;
46318;SDS011;32042;50.916;2.926;2023-09-19T04:52:44;9.00;;;2.00;;
46318;SDS011;32042;50.916;2.926;2023-09-19T04:55:13;8.03;;;1.97;;
46318;SDS011;32042;50.916;2.926;2023-09-19T04:57:49;11.73;;;2.60;;
46318;SDS011;32042;50.916;2.926;2023-09-19T05:00:16;8.90;;;2.00;;
46318;SDS011;32042;50.916;2.926;2023-09-19T05:02:44;11.60;;;2.63;;
46318;SDS011;32042;50.916;2.926;2023-09-19T05:05:10;7.17;;;1.57;;
46318;SDS011;32042;50.916;2.926;2023-09-19T05:07:37;12.03;;;2.40;;
46318;SDS011;32042;50.916;2.926;2023-09-19T05:10:04;14.70;;;2.47;;
46318;SDS011;32042;50.916;2.926;2023-09-19T05:12:34;9.73;;;2.23;;
46318;SDS011;32042;50.916;2.926;2023-09-19T05:15:01;11.77;;;3.03;;
46318;SDS011;32042;50.916;2.926;2023-09-19T05:17:28;8.50;;;2.00;;
46318;SDS011;32042;50.916;2.926;2023-09-19T05:19:54;8.60;;;2.10;;
46318;SDS011;32042;50.916;2.926;2023-09-19T05:22:20;9.03;;;2.17;;
46318;SDS011;32042;50.916;2.926;2023-09-19T05:24:45;7.50;;;2.27;;
46318;SDS011;32042;50.916;2.926;2023-09-19T05:27:14;12.27;;;2.50;;
46318;SDS011;32042;50.916;2.926;2023-09-19T05:29:42;9.73;;;1.70;;
46318;SDS011;32042;50.916;2.926;2023-09-19T05:32:09;10.13;;;2.30;;
46318;SDS011;32042;50.916;2.926;2023-09-19T05:34:36;16.53;;;2.20;;
46318;SDS011;32042;50.916;2.926;2023-09-19T05:37:03;11.37;;;2.00;;
46318;SDS011;32042;50.916;2.926;2023-09-19T05:39:32;7.23;;;2.53;;
46318;SDS011;32042;50.916;2.926;2023-09-19T05:41:58;11.23;;;1.90;;
46318;SDS011;32042;50.916;2.926;2023-09-19T05:44:25;11.33;;;2.37;;
46318;SDS011;32042;50.916;2.926;2023-09-19T05:46:51;9.10;;;2.10;;
46318;SDS011;32042;50.916;2.926;2023-09-19T05:49:17;9.00;;;2.37;;
46318;SDS011;32042;50.916;2.926;2023-09-19T05:51:43;18.13;;;2.37;;
46318;SDS011;32042;50.916;2.926;2023-09-19T05:54:09;13.97;;;2.30;;
46318;SDS011;32042;50.916;2.926;2023-09-19T05:56:36;10.10;;;2.17;;
46318;SDS011;32042;50.916;2.926;2023-09-19T05:59:02;10.03;;;2.27;;
46318;SDS011;32042;50.916;2.926;2023-09-19T06:01:29;9.27;;;2.23;;
46318;SDS011;32042;50.916;2.926;2023-09-19T06:03:57;9.00;;;2.03;;
46318;SDS011;32042;50.916;2.926;2023-09-19T06:06:25;10.80;;;2.23;;
46318;SDS011;32042;50.916;2.926;2023-09-19T06:08:51;11.80;;;2.00;;
46318;SDS011;32042;50.916;2.926;2023-09-19T06:11:16;8.37;;;2.10;;
46318;SDS011;32042;50.916;2.926;2023-09-19T06:13:45;11.57;;;2.47;;
46318;SDS011;32042;50.916;2.926;2023-09-19T06:16:12;11.07;;;2.20;;
46318;SDS011;32042;50.916;2.926;2023-09-19T06:18:38;10.27;;;2.63;;
46318;SDS011;32042;50.916;2.926;2023-09-19T06:21:04;8.17;;;1.97;;
46318;SDS011;32042;50.916;2.926;2023-09-19T06:23:33;5.93;;;1.67;;
46318;SDS011;32042;50.916;2.926;2023-09-19T06:26:00;5.00;;;2.07;;
46318;SDS011;32042;50.916;2.926;2023-09-19T06:28:25;7.90;;;1.97;;
46318;SDS011;32042;50.916;2.926;2023-09-19T06:30:53;7.03;;;2.20;;
46318;SDS011;32042;50.916;2.926;2023-09-19T06:33:22;8.87;;;2.10;;
46318;SDS011;32042;50.916;2.926;2023-09-19T06:35:48;6.83;;;1.70;;
46318;SDS011;32042;50.916;2.926;2023-09-19T06:38:13;5.73;;;2.07;;
46318;SDS011;32042;50.916;2.926;2023-09-19T06:40:40;9.27;;;2.47;;
46318;SDS011;32042;50.916;2.926;2023-09-19T06:43:10;10.83;;;1.80;;
46318;SDS011;32042;50.916;2.926;2023-09-19T06:45:36;6.07;;;1.63;;
46318;SDS011;32042;50.916;2.926;2023-09-19T06:48:02;8.33;;;1.90;;
46318;SDS011;32042;50.916;2.926;2023-09-19T06:50:28;7.57;;;1.97;;
46318;SDS011;32042;50.916;2.926;2023-09-19T06:52:56;9.40;;;2.37;;
46318;SDS011;32042;50.916;2.926;2023-09-19T06:55:25;8.80;;;2.10;;
46318;SDS011;32042;50.916;2.926;2023-09-19T06:57:56;5.83;;;2.07;;
46318;SDS011;32042;50.916;2.926;2023-09-19T07:00:23;6.40;;;2.03;;
46318;SDS011;32042;50.916;2.926;2023-09-19T07:02:59;9.27;;;1.90;;
46318;SDS011;32042;50.916;2.926;2023-09-19T07:05:29;7.83;;;2.37;;
46318;SDS011;32042;50.916;2.926;2023-09-19T07:07:57;13.93;;;2.03;;
46318;SDS011;32042;50.916;2.926;2023-09-19T07:10:24;9.87;;;2.00;;
46318;SDS011;32042;50.916;2.926;2023-09-19T07:12:57;9.20;;;2.30;;
46318;SDS011;32042;50.916;2.926;2023-09-19T07:15:27;8.97;;;2.03;;
46318;SDS011;32042;50.916;2.926;2023-09-19T07:17:55;6.70;;;1.77;;
46318;SDS011;32042;50.916;2.926;2023-09-19T07:20:22;10.20;;;1.70;;
46318;SDS011;32042;50.916;2.926;2023-09-19T07:22:52;7.57;;;2.10;;
46318;SDS011;32042;50.916;2.926;2023-09-19T07:25:20;17.57;;;2.30;;
46318;SDS011;32042;50.916;2.926;2023-09-19T07:27:46;14.70;;;2.83;;
46318;SDS011;32042;50.916;2.926;2023-09-19T07:30:12;15.77;;;1.57;;
46318;SDS011;32042;50.916;2.926;2023-09-19T07:32:38;7.23;;;1.90;;
46318;SDS011;32042;50.916;2.926;2023-09-19T07:35:05;6.13;;;2.17;;
46318;SDS011;32042;50.916;2.926;2023-09-19T07:37:32;9.23;;;1.60;;
46318;SDS011;32042;50.916;2.926;2023-09-19T07:40:04;6.53;;;2.30;;
46318;SDS011;32042;50.916;2.926;2023-09-19T07:42:34;6.93;;;2.20;;
46318;SDS011;32042;50.916;2.926;2023-09-19T07:45:02;6.40;;;1.70;;
46318;SDS011;32042;50.916;2.926;2023-09-19T07:47:28;9.13;;;2.13;;
46318;SDS011;32042;50.916;2.926;2023-09-19T07:49:55;11.57;;;2.83;;
46318;SDS011;32042;50.916;2.926;2023-09-19T07:52:21;5.90;;;1.70;;
46318;SDS011;32042;50.916;2.926;2023-09-19T07:54:48;9.55;;;1.77;;
46318;SDS011;32042;50.916;2.926;2023-09-19T07:57:14;8.10;;;1.87;;
46318;SDS011;32042;50.916;2.926;2023-09-19T07:59:41;6.97;;;1.80;;
46318;SDS011;32042;50.916;2.926;2023-09-19T08:02:07;7.22;;;2.17;;
46318;SDS011;32042;50.916;2.926;2023-09-19T08:04:35;5.90;;;1.73;;
46318;SDS011;32042;50.916;2.926;2023-09-19T08:07:00;9.90;;;2.08;;
46318;SDS011;32042;50.916;2.926;2023-09-19T08:09:28;8.13;;;1.80;;
46318;SDS011;32042;50.916;2.926;2023-09-19T08:11:58;8.63;;;2.15;;
46318;SDS011;32042;50.916;2.926;2023-09-19T08:14:29;5.90;;;1.75;;
46318;SDS011;32042;50.916;2.926;2023-09-19T08:16:58;13.75;;;2.15;;
46318;SDS011;32042;50.916;2.926;2023-09-19T08:19:24;7.70;;;1.93;;
46318;SDS011;32042;50.916;2.926;2023-09-19T08:21:55;6.18;;;1.50;;
46318;SDS011;32042;50.916;2.926;2023-09-19T08:24:23;8.38;;;1.80;;
46318;SDS011;32042;50.916;2.926;2023-09-19T08:26:56;9.88;;;1.90;;
46318;SDS011;32042;50.916;2.926;2023-09-19T08:29:22;10.90;;;1.80;;
46318;SDS011;32042;50.916;2.926;2023-09-19T08:31:55;10.32;;;1.77;;
46318;SDS011;32042;50.916;2.926;2023-09-19T08:34:22;8.15;;;1.58;;
46318;SDS011;32042;50.916;2.926;2023-09-19T08:36:53;6.13;;;1.85;;
46318;SDS011;32042;50.916;2.926;2023-09-19T08:39:22;6.70;;;1.80;;
46318;SDS011;32042;50.916;2.926;2023-09-19T08:41:49;11.27;;;1.90;;
46318;SDS011;32042;50.916;2.926;2023-09-19T08:44:15;9.32;;;2.72;;
46318;SDS011;32042;50.916;2.926;2023-09-19T08:46:42;7.00;;;1.92;;
46318;SDS011;32042;50.916;2.926;2023-09-19T08:49:32;7.18;;;1.83;;
46318;SDS011;32042;50.916;2.926;2023-09-19T08:52:05;7.82;;;1.83;;
46318;SDS011;32042;50.916;2.926;2023-09-19T08:54:37;8.02;;;1.85;;
46318;SDS011;32042;50.916;2.926;2023-09-19T08:57:05;6.30;;;2.08;;
46318;SDS011;32042;50.916;2.926;2023-09-19T08:59:39;6.93;;;2.03;;
46318;SDS011;32042;50.916;2.926;2023-09-19T09:02:10;9.07;;;1.50;;
46318;SDS011;32042;50.916;2.926;2023-09-19T09:04:40;5.40;;;1.67;;
46318;SDS011;32042;50.916;2.926;2023-09-19T09:07:11;8.35;;;1.63;;
46318;SDS011;32042;50.916;2.926;2023-09-19T09:09:39;5.32;;;1.50;;
46318;SDS011;32042;50.916;2.926;2023-09-19T09:12:12;5.65;;;1.40;;
46318;SDS011;32042;50.916;2.926;2023-09-19T09:14:39;9.85;;;2.00;;
46318;SDS011;32042;50.916;2.926;2023-09-19T09:17:05;3.58;;;1.50;;
46318;SDS011;32042;50.916;2.926;2023-09-19T09:19:32;8.82;;;1.65;;
46318;SDS011;32042;50.916;2.926;2023-09-19T09:22:11;9.13;;;1.98;;
46318;SDS011;32042;50.916;2.926;2023-09-19T09:24:37;6.28;;;1.98;;
46318;SDS011;32042;50.916;2.926;2023-09-19T09:27:15;6.68;;;1.85;;
46318;SDS011;32042;50.916;2.926;2023-09-19T09:29:43;4.82;;;1.20;;
46318;SDS011;32042;50.916;2.926;2023-09-19T09:32:19;4.78;;;1.33;;
46318;SDS011;32042;50.916;2.926;2023-09-19T09:34:49;2.10;;;1.20;;
46318;SDS011;32042;50.916;2.926;2023-09-19T09:37:20;5.50;;;1.40;;
46318;SDS011;32042;50.916;2.926;2023-09-19T09:42:44;4.50;;;1.33;;
46318;SDS011;32042;50.916;2.926;2023-09-19T09:45:24;2.40;;;1.00;;
46318;SDS011;32042;50.916;2.926;2023-09-19T09:47:59;6.65;;;1.55;;
46318;SDS011;32042;50.916;2.926;2023-09-19T09:53:20;3.47;;;0.93;;
46318;SDS011;32042;50.916;2.926;2023-09-19T09:59:04;5.32;;;1.08;;
46318;SDS011;32042;50.916;2.926;2023-09-19T10:01:24;4.32;;;1.13;;
46318;SDS011;32042;50.916;2.926;2023-09-19T10:03:52;12.93;;;1.30;;
46318;SDS011;32042;50.916;2.926;2023-09-19T10:06:22;2.85;;;0.90;;
46318;SDS011;32042;50.916;2.926;2023-09-19T10:09:04;4.82;;;1.00;;
46318;SDS011;32042;50.916;2.926;2023-09-19T10:12:02;4.25;;;1.02;;
46318;SDS011;32042;50.916;2.926;2023-09-19T10:14:30;2.53;;;0.88;;
46318;SDS011;32042;50.916;2.926;2023-09-19T10:17:00;5.05;;;1.10;;
46318;SDS011;32042;50.916;2.926;2023-09-19T10:19:41;4.65;;;1.10;;
46318;SDS011;32042;50.916;2.926;2023-09-19T10:22:12;5.15;;;1.13;;
46318;SDS011;32042;50.916;2.926;2023-09-19T10:24:45;3.88;;;0.90;;
46318;SDS011;32042;50.916;2.926;2023-09-19T10:27:12;7.25;;;1.20;;
46318;SDS011;32042;50.916;2.926;2023-09-19T10:29:44;3.00;;;0.77;;
46318;SDS011;32042;50.916;2.926;2023-09-19T10:32:15;4.10;;;1.25;;
46318;SDS011;32042;50.916;2.926;2023-09-19T10:34:44;4.70;;;0.90;;
46318;SDS011;32042;50.916;2.926;2023-09-19T10:37:13;2.70;;;1.00;;
46318;SDS011;32042;50.916;2.926;2023-09-19T10:39:40;3.22;;;0.90;;
46318;SDS011;32042;50.916;2.926;2023-09-19T10:42:09;5.07;;;1.10;;
46318;SDS011;32042;50.916;2.926;2023-09-19T10:44:42;4.18;;;0.75;;
46318;SDS011;32042;50.916;2.926;2023-09-19T10:47:10;4.60;;;1.00;;
46318;SDS011;32042;50.916;2.926;2023-09-19T10:49:42;3.65;;;0.95;;
46318;SDS011;32042;50.916;2.926;2023-09-19T10:52:11;4.38;;;1.23;;
46318;SDS011;32042;50.916;2.926;2023-09-19T10:54:44;4.78;;;1.02;;
46318;SDS011;32042;50.916;2.926;2023-09-19T10:57:22;2.17;;;0.90;;
46318;SDS011;32042;50.916;2.926;2023-09-19T11:00:10;6.18;;;1.35;;
46318;SDS011;32042;50.916;2.926;2023-09-19T11:05:43;6.70;;;1.13;;
46318;SDS011;32042;50.916;2.926;2023-09-19T11:14:14;5.55;;;1.33;;
46318;SDS011;32042;50.916;2.926;2023-09-19T11:17:17;8.88;;;1.50;;
46318;SDS011;32042;50.916;2.926;2023-09-19T11:30:34;4.13;;;1.30;;
46318;SDS011;32042;50.916;2.926;2023-09-19T11:43:48;4.90;;;1.40;;
46318;SDS011;32042;50.916;2.926;2023-09-19T11:46:15;4.55;;;1.65;;
46318;SDS011;32042;50.916;2.926;2023-09-19T11:48:47;7.82;;;1.30;;
46318;SDS011;32042;50.916;2.926;2023-09-19T11:51:14;6.90;;;2.55;;
46318;SDS011;32042;50.916;2.926;2023-09-19T11:53:51;5.18;;;1.60;;
46318;SDS011;32042;50.916;2.926;2023-09-19T11:56:19;7.43;;;2.00;;
46318;SDS011;32042;50.916;2.926;2023-09-19T11:58:48;8.85;;;1.80;;
46318;SDS011;32042;50.916;2.926;2023-09-19T12:01:28;8.35;;;1.63;;
46318;SDS011;32042;50.916;2.926;2023-09-19T12:03:57;3.05;;;0.90;;
46318;SDS011;32042;50.916;2.926;2023-09-19T12:06:24;7.68;;;1.80;;
46318;SDS011;32042;50.916;2.926;2023-09-19T12:08:52;5.70;;;1.95;;
46318;SDS011;32042;50.916;2.926;2023-09-19T12:11:27;6.38;;;2.10;;
46318;SDS011;32042;50.916;2.926;2023-09-19T12:13:58;4.75;;;1.63;;
46318;SDS011;32042;50.916;2.926;2023-09-19T12:16:25;4.93;;;1.45;;
46318;SDS011;32042;50.916;2.926;2023-09-19T12:18:55;12.75;;;1.92;;
46318;SDS011;32042;50.916;2.926;2023-09-19T12:21:23;5.10;;;1.27;;
46318;SDS011;32042;50.916;2.926;2023-09-19T12:23:57;8.15;;;2.08;;
46318;SDS011;32042;50.916;2.926;2023-09-19T12:26:30;8.13;;;2.58;;
46318;SDS011;32042;50.916;2.926;2023-09-19T12:29:02;6.07;;;1.77;;
46318;SDS011;32042;50.916;2.926;2023-09-19T12:31:30;9.25;;;1.30;;
46318;SDS011;32042;50.916;2.926;2023-09-19T12:34:01;7.07;;;1.50;;
46318;SDS011;32042;50.916;2.926;2023-09-19T12:36:27;5.97;;;1.27;;
46318;SDS011;32042;50.916;2.926;2023-09-19T12:38:58;4.38;;;1.25;;
46318;SDS011;32042;50.916;2.926;2023-09-19T12:41:24;4.32;;;1.23;;
46318;SDS011;32042;50.916;2.926;2023-09-19T12:43:52;3.58;;;1.60;;
46318;SDS011;32042;50.916;2.926;2023-09-19T12:46:20;6.47;;;1.80;;
46318;SDS011;32042;50.916;2.926;2023-09-19T12:49:14;4.28;;;1.40;;
46318;SDS011;32042;50.916;2.926;2023-09-19T12:51:47;3.15;;;1.35;;
46318;SDS011;32042;50.916;2.926;2023-09-19T12:54:14;6.68;;;1.48;;
46318;SDS011;32042;50.916;2.926;2023-09-19T12:56:42;5.85;;;1.23;;
46318;SDS011;32042;50.916;2.926;2023-09-19T12:59:12;4.32;;;1.80;;
46318;SDS011;32042;50.916;2.926;2023-09-19T13:01:40;4.65;;;1.85;;
46318;SDS011;32042;50.916;2.926;2023-09-19T13:06:51;6.40;;;1.80;;
46318;SDS011;32042;50.916;2.926;2023-09-19T13:09:21;7.32;;;1.95;;
46318;SDS011;32042;50.916;2.926;2023-09-19T13:11:49;5.78;;;1.50;;
46318;SDS011;32042;50.916;2.926;2023-09-19T13:14:22;4.13;;;1.30;;
46318;SDS011;32042;50.916;2.926;2023-09-19T13:16:59;4.35;;;1.65;;
46318;SDS011;32042;50.916;2.926;2023-09-19T13:19:36;7.22;;;1.85;;
46318;SDS011;32042;50.916;2.926;2023-09-19T13:22:04;7.18;;;1.70;;
46318;SDS011;32042;50.916;2.926;2023-09-19T13:24:50;5.18;;;1.60;;
46318;SDS011;32042;50.916;2.926;2023-09-19T13:27:16;4.43;;;1.60;;
46318;SDS011;32042;50.916;2.926;2023-09-19T13:29:42;8.32;;;1.48;;
46318;SDS011;32042;50.916;2.926;2023-09-19T13:32:08;4.68;;;1.27;;
46318;SDS011;32042;50.916;2.926;2023-09-19T13:34:36;7.38;;;1.70;;
46318;SDS011;32042;50.916;2.926;2023-09-19T13:37:02;5.00;;;1.98;;
46318;SDS011;32042;50.916;2.926;2023-09-19T13:39:29;6.15;;;2.00;;
46318;SDS011;32042;50.916;2.926;2023-09-19T13:41:55;7.20;;;1.98;;
46318;SDS011;32042;50.916;2.926;2023-09-19T13:44:21;6.18;;;1.83;;
46318;SDS011;32042;50.916;2.926;2023-09-19T13:46:48;4.20;;;1.60;;
46318;SDS011;32042;50.916;2.926;2023-09-19T13:49:14;8.68;;;2.42;;
46318;SDS011;32042;50.916;2.926;2023-09-19T13:51:40;5.18;;;1.38;;
46318;SDS011;32042;50.916;2.926;2023-09-19T13:54:08;6.18;;;2.00;;
46318;SDS011;32042;50.916;2.926;2023-09-19T13:56:35;6.05;;;1.63;;
46318;SDS011;32042;50.916;2.926;2023-09-19T13:59:01;3.15;;;1.38;;
46318;SDS011;32042;50.916;2.926;2023-09-19T14:01:27;4.80;;;2.30;;
46318;SDS011;32042;50.916;2.926;2023-09-19T14:03:53;4.28;;;2.17;;
46318;SDS011;32042;50.916;2.926;2023-09-19T14:06:19;9.02;;;2.50;;
46318;SDS011;32042;50.916;2.926;2023-09-19T14:08:45;9.57;;;2.17;;
46318;SDS011;32042;50.916;2.926;2023-09-19T14:11:15;8.85;;;2.72;;
46318;SDS011;32042;50.916;2.926;2023-09-19T14:13:41;6.95;;;2.28;;
46318;SDS011;32042;50.916;2.926;2023-09-19T14:16:11;11.40;;;2.38;;
46318;SDS011;32042;50.916;2.926;2023-09-19T14:18:37;5.18;;;1.92;;
46318;SDS011;32042;50.916;2.926;2023-09-19T14:21:03;8.68;;;2.35;;
46318;SDS011;32042;50.916;2.926;2023-09-19T14:23:34;7.35;;;1.60;;
46318;SDS011;32042;50.916;2.926;2023-09-19T14:26:01;11.52;;;2.35;;
46318;SDS011;32042;50.916;2.926;2023-09-19T14:28:27;6.75;;;2.38;;
46318;SDS011;32042;50.916;2.926;2023-09-19T14:30:55;7.65;;;2.83;;
46318;SDS011;32042;50.916;2.926;2023-09-19T14:33:20;4.22;;;1.42;;
46318;SDS011;32042;50.916;2.926;2023-09-19T14:35:46;7.60;;;2.00;;
46318;SDS011;32042;50.916;2.926;2023-09-19T14:38:12;8.90;;;2.38;;
46318;SDS011;32042;50.916;2.926;2023-09-19T14:40:39;10.73;;;2.08;;
46318;SDS011;32042;50.916;2.926;2023-09-19T14:43:05;6.72;;;1.85;;
46318;SDS011;32042;50.916;2.926;2023-09-19T14:45:35;6.90;;;2.65;;
46318;SDS011;32042;50.916;2.926;2023-09-19T14:48:01;5.25;;;2.00;;
46318;SDS011;32042;50.916;2.926;2023-09-19T14:50:30;8.60;;;2.85;;
46318;SDS011;32042;50.916;2.926;2023-09-19T14:52:56;6.95;;;2.50;;
46318;SDS011;32042;50.916;2.926;2023-09-19T14:55:23;11.93;;;3.40;;
46318;SDS011;32042;50.916;2.926;2023-09-19T14:57:49;6.72;;;2.50;;
46318;SDS011;32042;50.916;2.926;2023-09-19T15:00:16;6.43;;;2.08;;
46318;SDS011;32042;50.916;2.926;2023-09-19T15:02:45;9.48;;;2.40;;
46318;SDS011;32042;50.916;2.926;2023-09-19T15:05:13;9.73;;;2.70;;
46318;SDS011;32042;50.916;2.926;2023-09-19T15:07:40;9.75;;;2.95;;
46318;SDS011;32042;50.916;2.926;2023-09-19T15:10:06;8.30;;;3.20;;
46318;SDS011;32042;50.916;2.926;2023-09-19T15:12:34;6.97;;;2.53;;
46318;SDS011;32042;50.916;2.926;2023-09-19T15:15:04;5.68;;;2.85;;
46318;SDS011;32042;50.916;2.926;2023-09-19T15:17:34;4.90;;;2.53;;
46318;SDS011;32042;50.916;2.926;2023-09-19T15:20:01;9.05;;;3.00;;
46318;SDS011;32042;50.916;2.926;2023-09-19T15:22:27;5.72;;;2.58;;
46318;SDS011;32042;50.916;2.926;2023-09-19T15:24:53;6.47;;;2.33;;
46318;SDS011;32042;50.916;2.926;2023-09-19T15:27:20;11.20;;;2.85;;
46318;SDS011;32042;50.916;2.926;2023-09-19T15:29:46;4.88;;;2.30;;
46318;SDS011;32042;50.916;2.926;2023-09-19T15:32:12;8.30;;;2.90;;
46318;SDS011;32042;50.916;2.926;2023-09-19T15:34:38;10.77;;;3.28;;
46318;SDS011;32042;50.916;2.926;2023-09-19T15:37:04;7.88;;;2.92;;
46318;SDS011;32042;50.916;2.926;2023-09-19T15:39:30;9.20;;;2.70;;
46318;SDS011;32042;50.916;2.926;2023-09-19T15:41:58;5.25;;;3.08;;
46318;SDS011;32042;50.916;2.926;2023-09-19T15:44:24;9.88;;;3.47;;
46318;SDS011;32042;50.916;2.926;2023-09-19T15:46:53;8.15;;;2.72;;